ICX246 EGPH-EIKN
Flight info
| Callsign | ICX246 |
|---|---|
| Flight time | 1h 11m |
| Altitude | 20000 |
| Route | GOSAM1D GOSAM DCT TRN DCT NELBO DCT NIMAT DCT DUB DCT OLAPO DCT CON |
| Aircraft | AT46/M-SDFGIRY/S |
Departure
| Time | 2026-04-26 15:24 |
|---|---|
| Airport | Edinburgh Airport (EGPH) |
Arrival
| Time | 2026-04-26 16:36 |
|---|---|
| Airport | Ireland West Airport Knock (EIKN) |
| Time | Latitude | Longitude | Altitude | Speed | Heading |
|---|---|---|---|---|---|
| 2026-04-26 14:30 | 55.94594 | -3.36828 | 113 ft | 0 kts | 269° |
| 2026-04-26 15:05 | 55.94594 | -3.36824 | 113 ft | 2 kts | 269° |
| 2026-04-26 15:05 | 55.94594 | -3.36778 | 113 ft | 4 kts | 273° |
| 2026-04-26 15:06 | 55.94589 | -3.36739 | 113 ft | 4 kts | 328° |
| 2026-04-26 15:06 | 55.94580 | -3.36733 | 111 ft | 1 kts | 359° |
| 2026-04-26 15:06 | 55.94579 | -3.36733 | 113 ft | 0 kts | 359° |
| 2026-04-26 15:12 | 55.94585 | -3.36733 | 113 ft | 0 kts | 358° |
| 2026-04-26 15:13 | 55.94588 | -3.36733 | 113 ft | 2 kts | 359° |
| 2026-04-26 15:14 | 55.94613 | -3.36734 | 113 ft | 5 kts | 358° |
| 2026-04-26 15:14 | 55.94654 | -3.36735 | 113 ft | 6 kts | 359° |
| 2026-04-26 15:14 | 55.94702 | -3.36736 | 112 ft | 7 kts | 359° |
| 2026-04-26 15:14 | 55.94750 | -3.36742 | 113 ft | 7 kts | 339° |
| 2026-04-26 15:15 | 55.94794 | -3.36777 | 113 ft | 7 kts | 357° |
| 2026-04-26 15:15 | 55.94848 | -3.36778 | 113 ft | 8 kts | 359° |
| 2026-04-26 15:15 | 55.94900 | -3.36808 | 111 ft | 8 kts | 328° |
| 2026-04-26 15:15 | 55.94929 | -3.36884 | 111 ft | 8 kts | 255° |
| 2026-04-26 15:16 | 55.94899 | -3.36975 | 112 ft | 9 kts | 239° |
| 2026-04-26 15:16 | 55.94866 | -3.37072 | 112 ft | 9 kts | 239° |
| 2026-04-26 15:16 | 55.94832 | -3.37174 | 112 ft | 10 kts | 238° |
| 2026-04-26 15:16 | 55.94797 | -3.37278 | 112 ft | 10 kts | 239° |
| 2026-04-26 15:17 | 55.94761 | -3.37382 | 112 ft | 10 kts | 239° |
| 2026-04-26 15:17 | 55.94737 | -3.37452 | 112 ft | 10 kts | 239° |
| 2026-04-26 15:17 | 55.94690 | -3.37594 | 112 ft | 10 kts | 239° |
| 2026-04-26 15:17 | 55.94654 | -3.37699 | 112 ft | 10 kts | 239° |
| 2026-04-26 15:18 | 55.94618 | -3.37805 | 111 ft | 10 kts | 238° |
| 2026-04-26 15:18 | 55.94581 | -3.37912 | 112 ft | 10 kts | 239° |
| 2026-04-26 15:18 | 55.94545 | -3.38019 | 112 ft | 10 kts | 238° |
| 2026-04-26 15:18 | 55.94508 | -3.38127 | 110 ft | 10 kts | 239° |
| 2026-04-26 15:19 | 55.94472 | -3.38234 | 111 ft | 10 kts | 238° |
| 2026-04-26 15:19 | 55.94436 | -3.38342 | 111 ft | 10 kts | 238° |
| 2026-04-26 15:19 | 55.94399 | -3.38449 | 111 ft | 10 kts | 239° |
| 2026-04-26 15:19 | 55.94363 | -3.38556 | 111 ft | 10 kts | 239° |
| 2026-04-26 15:20 | 55.94327 | -3.38663 | 112 ft | 10 kts | 239° |
| 2026-04-26 15:20 | 55.94291 | -3.38769 | 109 ft | 10 kts | 239° |
| 2026-04-26 15:20 | 55.94294 | -3.38873 | 110 ft | 9 kts | 322° |
| 2026-04-26 15:20 | 55.94328 | -3.38911 | 112 ft | 0 kts | 328° |
| 2026-04-26 15:22 | 55.94341 | -3.38924 | 112 ft | 5 kts | 330° |
| 2026-04-26 15:22 | 55.94380 | -3.38965 | 110 ft | 8 kts | 329° |
| 2026-04-26 15:23 | 55.94424 | -3.38944 | 109 ft | 7 kts | 53° |
| 2026-04-26 15:23 | 55.94429 | -3.38932 | 110 ft | 0 kts | 58° |
| 2026-04-26 15:24 | 55.94491 | -3.38745 | 109 ft | 53 kts | 60° |
| 2026-04-26 15:24 | 55.94815 | -3.37789 | 112 ft | 122 kts | 60° |
| 2026-04-26 15:24 | 55.95302 | -3.36400 | 512 ft | 138 kts | 57° |
| 2026-04-26 15:24 | 55.95851 | -3.34963 | 1121 ft | 142 kts | 56° |
| 2026-04-26 15:25 | 55.96449 | -3.33508 | 1760 ft | 147 kts | 50° |
| 2026-04-26 15:25 | 55.96923 | -3.32643 | 2197 ft | 149 kts | 46° |
| 2026-04-26 15:25 | 55.97944 | -3.30931 | 3033 ft | 152 kts | 43° |
| 2026-04-26 15:25 | 55.98766 | -3.29721 | 3616 ft | 157 kts | 40° |
| 2026-04-26 15:26 | 55.99668 | -3.28519 | 4172 ft | 164 kts | 32° |
| 2026-04-26 15:26 | 56.00778 | -3.27999 | 4771 ft | 171 kts | 355° |
| 2026-04-26 15:26 | 56.01816 | -3.28838 | 5388 ft | 163 kts | 309° |
| 2026-04-26 15:26 | 56.02459 | -3.30443 | 5978 ft | 163 kts | 297° |
| 2026-04-26 15:27 | 56.02940 | -3.32223 | 6128 ft | 149 kts | 283° |
| 2026-04-26 15:27 | 56.03041 | -3.33983 | 5991 ft | 138 kts | 263° |
| 2026-04-26 15:27 | 56.02890 | -3.35799 | 6082 ft | 158 kts | 256° |
| 2026-04-26 15:27 | 56.02618 | -3.37792 | 5929 ft | 179 kts | 251° |
| 2026-04-26 15:28 | 56.02068 | -3.39820 | 5990 ft | 179 kts | 230° |
| 2026-04-26 15:28 | 56.01061 | -3.41071 | 6024 ft | 188 kts | 197° |
| 2026-04-26 15:28 | 55.99772 | -3.41352 | 6092 ft | 181 kts | 195° |
| 2026-04-26 15:28 | 55.98600 | -3.42077 | 6261 ft | 180 kts | 202° |
| 2026-04-26 15:29 | 55.97359 | -3.42738 | 6129 ft | 191 kts | 187° |
| 2026-04-26 15:29 | 55.96119 | -3.43389 | 6079 ft | 191 kts | 213° |
| 2026-04-26 15:29 | 55.94304 | -3.46767 | 6023 ft | 197 kts | 253° |
| 2026-04-26 15:30 | 55.95459 | -3.51050 | 5980 ft | 215 kts | 324° |
| 2026-04-26 15:30 | 55.96758 | -3.52439 | 5957 ft | 218 kts | 326° |
| 2026-04-26 15:30 | 55.98089 | -3.53764 | 5951 ft | 220 kts | 328° |
| 2026-04-26 15:31 | 55.99348 | -3.55258 | 5944 ft | 215 kts | 307° |
| 2026-04-26 15:31 | 55.99375 | -3.59950 | 5963 ft | 199 kts | 233° |
| 2026-04-26 15:31 | 55.98556 | -3.61958 | 5964 ft | 202 kts | 234° |
| 2026-04-26 15:32 | 55.97351 | -3.65611 | 5949 ft | 207 kts | 241° |
| 2026-04-26 15:32 | 55.96565 | -3.68734 | 5963 ft | 205 kts | 248° |
| 2026-04-26 15:32 | 55.96136 | -3.71161 | 5945 ft | 205 kts | 253° |
| 2026-04-26 15:33 | 55.95849 | -3.73586 | 5932 ft | 203 kts | 258° |
| 2026-04-26 15:33 | 55.95711 | -3.75283 | 5956 ft | 202 kts | 260° |
| 2026-04-26 15:33 | 55.95544 | -3.77766 | 5944 ft | 201 kts | 261° |
| 2026-04-26 15:33 | 55.95391 | -3.80235 | 5943 ft | 199 kts | 261° |
| 2026-04-26 15:34 | 55.95235 | -3.82654 | 5972 ft | 199 kts | 260° |
| 2026-04-26 15:34 | 55.95068 | -3.85108 | 5951 ft | 200 kts | 260° |
| 2026-04-26 15:34 | 55.94903 | -3.87559 | 5948 ft | 199 kts | 261° |
| 2026-04-26 15:34 | 55.94726 | -3.89997 | 5948 ft | 197 kts | 260° |
| 2026-04-26 15:35 | 55.94550 | -3.92422 | 5982 ft | 198 kts | 260° |
| 2026-04-26 15:35 | 55.94371 | -3.94877 | 5967 ft | 200 kts | 259° |
| 2026-04-26 15:35 | 55.94154 | -3.97322 | 5948 ft | 199 kts | 258° |
| 2026-04-26 15:35 | 55.93916 | -3.99740 | 5975 ft | 196 kts | 254° |
| 2026-04-26 15:36 | 55.93237 | -4.01763 | 5974 ft | 190 kts | 226° |
| 2026-04-26 15:36 | 55.92307 | -4.03465 | 5963 ft | 193 kts | 223° |
| 2026-04-26 15:36 | 55.91291 | -4.05020 | 5960 ft | 193 kts | 218° |
| 2026-04-26 15:36 | 55.90208 | -4.06419 | 5961 ft | 192 kts | 215° |
| 2026-04-26 15:37 | 55.89098 | -4.07741 | 5965 ft | 192 kts | 214° |
| 2026-04-26 15:37 | 55.87942 | -4.09108 | 5973 ft | 208 kts | 214° |
| 2026-04-26 15:37 | 55.86709 | -4.10601 | 5970 ft | 221 kts | 215° |
| 2026-04-26 15:37 | 55.85415 | -4.12172 | 5969 ft | 229 kts | 215° |
| 2026-04-26 15:38 | 55.84080 | -4.13791 | 5975 ft | 235 kts | 215° |
| 2026-04-26 15:38 | 55.82713 | -4.15448 | 5976 ft | 239 kts | 215° |
| 2026-04-26 15:38 | 55.81329 | -4.17124 | 5975 ft | 242 kts | 215° |
| 2026-04-26 15:38 | 55.79931 | -4.18819 | 5969 ft | 244 kts | 215° |
| 2026-04-26 15:39 | 55.78528 | -4.20526 | 5979 ft | 245 kts | 215° |
| 2026-04-26 15:39 | 55.77117 | -4.22250 | 5982 ft | 247 kts | 215° |
| 2026-04-26 15:39 | 55.75731 | -4.23952 | 6153 ft | 239 kts | 215° |
| 2026-04-26 15:39 | 55.74840 | -4.25050 | 6604 ft | 223 kts | 216° |
| 2026-04-26 15:40 | 55.73248 | -4.27010 | 7435 ft | 200 kts | 216° |
| 2026-04-26 15:40 | 55.72138 | -4.28359 | 8029 ft | 187 kts | 216° |
| 2026-04-26 15:40 | 55.71093 | -4.29637 | 8563 ft | 178 kts | 216° |
| 2026-04-26 15:40 | 55.70099 | -4.30866 | 9081 ft | 171 kts | 216° |
| 2026-04-26 15:41 | 55.69124 | -4.32069 | 9483 ft | 171 kts | 216° |
| 2026-04-26 15:41 | 55.68147 | -4.33286 | 9869 ft | 171 kts | 217° |
| 2026-04-26 15:41 | 55.67170 | -4.34494 | 10248 ft | 172 kts | 217° |
| 2026-04-26 15:41 | 55.66189 | -4.35707 | 10619 ft | 172 kts | 217° |
| 2026-04-26 15:42 | 55.65207 | -4.36920 | 10979 ft | 173 kts | 217° |
| 2026-04-26 15:42 | 55.64219 | -4.38139 | 11339 ft | 173 kts | 218° |
| 2026-04-26 15:42 | 55.63233 | -4.39353 | 11713 ft | 173 kts | 218° |
| 2026-04-26 15:42 | 55.62245 | -4.40576 | 12070 ft | 174 kts | 218° |
| 2026-04-26 15:43 | 55.61254 | -4.41791 | 12426 ft | 174 kts | 218° |
| 2026-04-26 15:43 | 55.60256 | -4.43024 | 12765 ft | 175 kts | 218° |
| 2026-04-26 15:43 | 55.58251 | -4.45494 | 13440 ft | 176 kts | 218° |
| 2026-04-26 15:44 | 55.57254 | -4.46714 | 13755 ft | 177 kts | 218° |
| 2026-04-26 15:44 | 55.55216 | -4.49214 | 14389 ft | 179 kts | 218° |
| 2026-04-26 15:44 | 55.54193 | -4.50469 | 14699 ft | 180 kts | 218° |
| 2026-04-26 15:45 | 55.52130 | -4.52996 | 15277 ft | 181 kts | 218° |
| 2026-04-26 15:45 | 55.51091 | -4.54271 | 15574 ft | 183 kts | 218° |
| 2026-04-26 15:46 | 55.48998 | -4.56832 | 16136 ft | 184 kts | 218° |
| 2026-04-26 15:46 | 55.47940 | -4.58125 | 16401 ft | 185 kts | 218° |
| 2026-04-26 15:46 | 55.46879 | -4.59419 | 16677 ft | 185 kts | 218° |
| 2026-04-26 15:46 | 55.46163 | -4.60294 | 16845 ft | 186 kts | 218° |
| 2026-04-26 15:47 | 55.44750 | -4.62017 | 17173 ft | 187 kts | 218° |
| 2026-04-26 15:47 | 55.42600 | -4.64633 | 17634 ft | 188 kts | 218° |
| 2026-04-26 15:47 | 55.41524 | -4.65944 | 17873 ft | 189 kts | 218° |
| 2026-04-26 15:48 | 55.40441 | -4.67261 | 18074 ft | 189 kts | 218° |
| 2026-04-26 15:48 | 55.39356 | -4.68581 | 18292 ft | 190 kts | 219° |
| 2026-04-26 15:48 | 55.38266 | -4.69906 | 18500 ft | 191 kts | 218° |
| 2026-04-26 15:48 | 55.37173 | -4.71235 | 18697 ft | 192 kts | 218° |
| 2026-04-26 15:49 | 55.36074 | -4.72570 | 18895 ft | 192 kts | 218° |
| 2026-04-26 15:49 | 55.34968 | -4.73909 | 19086 ft | 193 kts | 218° |
| 2026-04-26 15:49 | 55.33860 | -4.75250 | 19276 ft | 194 kts | 218° |
| 2026-04-26 15:49 | 55.32747 | -4.76591 | 19463 ft | 194 kts | 218° |
| 2026-04-26 15:50 | 55.31629 | -4.77931 | 19640 ft | 195 kts | 218° |
| 2026-04-26 15:50 | 55.30454 | -4.79136 | 19815 ft | 198 kts | 208° |
| 2026-04-26 15:50 | 55.29155 | -4.79977 | 19975 ft | 200 kts | 204° |
| 2026-04-26 15:50 | 55.27826 | -4.80737 | 20121 ft | 202 kts | 203° |
| 2026-04-26 15:51 | 55.26475 | -4.81513 | 20195 ft | 207 kts | 204° |
| 2026-04-26 15:51 | 55.25099 | -4.82350 | 20233 ft | 212 kts | 205° |
| 2026-04-26 15:51 | 55.23692 | -4.83238 | 20253 ft | 219 kts | 205° |
| 2026-04-26 15:51 | 55.22213 | -4.84181 | 20264 ft | 233 kts | 205° |
| 2026-04-26 15:52 | 55.20648 | -4.85192 | 20267 ft | 246 kts | 204° |
| 2026-04-26 15:52 | 55.19003 | -4.86257 | 20264 ft | 257 kts | 204° |
| 2026-04-26 15:52 | 55.17327 | -4.87360 | 20267 ft | 265 kts | 204° |
| 2026-04-26 15:52 | 55.16152 | -4.88134 | 20266 ft | 270 kts | 205° |
| 2026-04-26 15:53 | 55.13767 | -4.89691 | 20266 ft | 277 kts | 204° |
| 2026-04-26 15:53 | 55.11968 | -4.90843 | 20263 ft | 281 kts | 204° |
| 2026-04-26 15:53 | 55.10122 | -4.92019 | 20265 ft | 284 kts | 204° |
| 2026-04-26 15:53 | 55.08258 | -4.93209 | 20262 ft | 286 kts | 204° |
| 2026-04-26 15:54 | 55.06379 | -4.94403 | 20264 ft | 288 kts | 203° |
| 2026-04-26 15:54 | 55.04492 | -4.95604 | 20264 ft | 290 kts | 204° |
| 2026-04-26 15:54 | 55.02593 | -4.96810 | 20265 ft | 291 kts | 203° |
| 2026-04-26 15:54 | 55.00689 | -4.98014 | 20263 ft | 292 kts | 203° |
| 2026-04-26 15:55 | 54.98782 | -4.99223 | 20265 ft | 292 kts | 204° |
| 2026-04-26 15:55 | 54.96868 | -5.00434 | 20266 ft | 293 kts | 203° |
| 2026-04-26 15:55 | 54.94954 | -5.01646 | 20266 ft | 293 kts | 203° |
| 2026-04-26 15:55 | 54.93034 | -5.02861 | 20263 ft | 294 kts | 203° |
| 2026-04-26 15:56 | 54.91112 | -5.04070 | 20264 ft | 294 kts | 203° |
| 2026-04-26 15:56 | 54.89190 | -5.05281 | 20265 ft | 294 kts | 203° |
| 2026-04-26 15:56 | 54.87269 | -5.06494 | 20265 ft | 294 kts | 203° |
| 2026-04-26 15:56 | 54.85345 | -5.07702 | 20267 ft | 294 kts | 203° |
| 2026-04-26 15:57 | 54.83446 | -5.08896 | 20266 ft | 294 kts | 203° |
| 2026-04-26 15:57 | 54.81522 | -5.10106 | 20266 ft | 295 kts | 203° |
| 2026-04-26 15:57 | 54.79592 | -5.11318 | 20265 ft | 295 kts | 203° |
| 2026-04-26 15:57 | 54.78288 | -5.12132 | 20265 ft | 295 kts | 203° |
| 2026-04-26 15:58 | 54.75732 | -5.13732 | 20265 ft | 295 kts | 203° |
| 2026-04-26 15:58 | 54.73803 | -5.14941 | 20266 ft | 295 kts | 203° |
| 2026-04-26 15:58 | 54.71872 | -5.16148 | 20266 ft | 295 kts | 203° |
| 2026-04-26 15:58 | 54.69938 | -5.17349 | 20266 ft | 295 kts | 203° |
| 2026-04-26 15:59 | 54.68008 | -5.18552 | 20266 ft | 295 kts | 203° |
| 2026-04-26 15:59 | 54.66079 | -5.19757 | 20265 ft | 295 kts | 203° |
| 2026-04-26 15:59 | 54.64146 | -5.20957 | 20266 ft | 295 kts | 202° |
| 2026-04-26 15:59 | 54.62212 | -5.22158 | 20266 ft | 295 kts | 203° |
| 2026-04-26 16:00 | 54.60281 | -5.23360 | 20263 ft | 296 kts | 203° |
| 2026-04-26 16:00 | 54.58346 | -5.24557 | 20265 ft | 295 kts | 203° |
| 2026-04-26 16:00 | 54.56410 | -5.25756 | 20266 ft | 296 kts | 203° |
| 2026-04-26 16:00 | 54.54475 | -5.26957 | 20266 ft | 296 kts | 202° |
| 2026-04-26 16:01 | 54.52537 | -5.28155 | 20266 ft | 296 kts | 202° |
| 2026-04-26 16:01 | 54.50600 | -5.29355 | 20265 ft | 296 kts | 202° |
| 2026-04-26 16:01 | 54.48665 | -5.30558 | 20266 ft | 295 kts | 204° |
| 2026-04-26 16:01 | 54.46792 | -5.31978 | 20267 ft | 294 kts | 208° |
| 2026-04-26 16:02 | 54.44996 | -5.33567 | 20266 ft | 295 kts | 210° |
| 2026-04-26 16:02 | 54.43178 | -5.35205 | 20266 ft | 295 kts | 210° |
| 2026-04-26 16:02 | 54.41351 | -5.36811 | 20266 ft | 295 kts | 209° |
| 2026-04-26 16:02 | 54.40107 | -5.37866 | 20265 ft | 295 kts | 208° |
| 2026-04-26 16:03 | 54.37666 | -5.39927 | 20266 ft | 295 kts | 208° |
| 2026-04-26 16:03 | 54.35822 | -5.41485 | 20266 ft | 296 kts | 208° |
| 2026-04-26 16:03 | 54.33975 | -5.43038 | 20266 ft | 296 kts | 208° |
| 2026-04-26 16:03 | 54.32128 | -5.44592 | 20266 ft | 296 kts | 208° |
| 2026-04-26 16:04 | 54.30279 | -5.46149 | 20267 ft | 296 kts | 208° |
| 2026-04-26 16:04 | 54.28431 | -5.47699 | 20267 ft | 296 kts | 208° |
| 2026-04-26 16:04 | 54.26580 | -5.49254 | 20267 ft | 296 kts | 208° |
| 2026-04-26 16:04 | 54.24730 | -5.50802 | 20266 ft | 296 kts | 208° |
| 2026-04-26 16:05 | 54.22877 | -5.52353 | 20266 ft | 297 kts | 208° |
| 2026-04-26 16:05 | 54.21024 | -5.53904 | 20266 ft | 297 kts | 208° |
| 2026-04-26 16:05 | 54.19166 | -5.55453 | 20266 ft | 297 kts | 208° |
| 2026-04-26 16:05 | 54.17313 | -5.57003 | 20265 ft | 297 kts | 208° |
| 2026-04-26 16:06 | 54.15456 | -5.58549 | 20265 ft | 297 kts | 208° |
| 2026-04-26 16:06 | 54.13598 | -5.60099 | 20266 ft | 297 kts | 208° |
| 2026-04-26 16:06 | 54.11739 | -5.61644 | 20266 ft | 297 kts | 208° |
| 2026-04-26 16:06 | 54.10507 | -5.62668 | 20266 ft | 298 kts | 208° |
| 2026-04-26 16:07 | 54.08648 | -5.64215 | 20266 ft | 298 kts | 208° |
| 2026-04-26 16:07 | 54.06783 | -5.65760 | 20266 ft | 298 kts | 208° |
| 2026-04-26 16:07 | 54.04922 | -5.67303 | 20266 ft | 298 kts | 208° |
| 2026-04-26 16:07 | 54.03059 | -5.68848 | 20266 ft | 298 kts | 208° |
| 2026-04-26 16:08 | 54.01195 | -5.70388 | 20267 ft | 298 kts | 208° |
| 2026-04-26 16:08 | 53.99331 | -5.71931 | 20267 ft | 298 kts | 208° |
| 2026-04-26 16:08 | 53.97466 | -5.73475 | 20266 ft | 298 kts | 208° |
| 2026-04-26 16:08 | 53.95635 | -5.75100 | 20265 ft | 296 kts | 213° |
| 2026-04-26 16:09 | 53.94004 | -5.77191 | 20267 ft | 292 kts | 229° |
| 2026-04-26 16:09 | 53.93068 | -5.80194 | 20269 ft | 291 kts | 257° |
| 2026-04-26 16:09 | 53.93063 | -5.83609 | 20267 ft | 292 kts | 276° |
| 2026-04-26 16:09 | 53.93332 | -5.87037 | 20260 ft | 294 kts | 277° |
| 2026-04-26 16:10 | 53.93526 | -5.90488 | 20256 ft | 294 kts | 271° |
| 2026-04-26 16:10 | 53.93440 | -5.93958 | 20251 ft | 294 kts | 263° |
| 2026-04-26 16:10 | 53.93094 | -5.97376 | 20251 ft | 294 kts | 258° |
| 2026-04-26 16:10 | 53.92671 | -6.00763 | 20248 ft | 294 kts | 258° |
| 2026-04-26 16:11 | 53.92251 | -6.04153 | 20252 ft | 294 kts | 258° |
| 2026-04-26 16:11 | 53.91854 | -6.07554 | 20247 ft | 294 kts | 259° |
| 2026-04-26 16:11 | 53.91480 | -6.10962 | 20247 ft | 294 kts | 259° |
| 2026-04-26 16:11 | 53.91114 | -6.14328 | 20247 ft | 294 kts | 259° |
| 2026-04-26 16:12 | 53.90744 | -6.17735 | 20247 ft | 294 kts | 259° |
| 2026-04-26 16:12 | 53.90373 | -6.21149 | 20247 ft | 294 kts | 259° |
| 2026-04-26 16:12 | 53.89625 | -6.27966 | 20241 ft | 294 kts | 259° |
| 2026-04-26 16:13 | 53.89249 | -6.31379 | 20239 ft | 294 kts | 259° |
| 2026-04-26 16:13 | 53.88871 | -6.34787 | 20238 ft | 294 kts | 259° |
| 2026-04-26 16:13 | 53.88494 | -6.38197 | 20243 ft | 294 kts | 259° |
| 2026-04-26 16:13 | 53.88115 | -6.41602 | 20240 ft | 294 kts | 259° |
| 2026-04-26 16:14 | 53.87735 | -6.45011 | 20238 ft | 294 kts | 259° |
| 2026-04-26 16:14 | 53.87354 | -6.48421 | 20243 ft | 294 kts | 259° |
| 2026-04-26 16:14 | 53.86590 | -6.55234 | 20240 ft | 294 kts | 259° |
| 2026-04-26 16:15 | 53.86208 | -6.58631 | 20240 ft | 294 kts | 259° |
| 2026-04-26 16:15 | 53.85822 | -6.62034 | 20237 ft | 294 kts | 259° |
| 2026-04-26 16:15 | 53.85437 | -6.65435 | 20239 ft | 294 kts | 259° |
| 2026-04-26 16:16 | 53.84665 | -6.72226 | 20245 ft | 294 kts | 259° |
| 2026-04-26 16:16 | 53.84278 | -6.75617 | 20238 ft | 294 kts | 259° |
| 2026-04-26 16:16 | 53.83889 | -6.79016 | 20238 ft | 294 kts | 259° |
| 2026-04-26 16:16 | 53.83500 | -6.82407 | 20244 ft | 293 kts | 259° |
| 2026-04-26 16:17 | 53.83115 | -6.85753 | 20245 ft | 293 kts | 259° |
| 2026-04-26 16:17 | 53.82724 | -6.89142 | 20247 ft | 293 kts | 259° |
| 2026-04-26 16:17 | 53.82332 | -6.92528 | 20252 ft | 294 kts | 259° |
| 2026-04-26 16:17 | 53.81933 | -6.95919 | 20249 ft | 294 kts | 258° |
| 2026-04-26 16:18 | 53.81525 | -6.99305 | 20250 ft | 294 kts | 258° |
| 2026-04-26 16:18 | 53.80698 | -7.06070 | 20248 ft | 294 kts | 258° |
| 2026-04-26 16:19 | 53.79863 | -7.12830 | 20249 ft | 294 kts | 258° |
| 2026-04-26 16:19 | 53.79468 | -7.16212 | 20252 ft | 293 kts | 260° |
| 2026-04-26 16:19 | 53.78809 | -7.23020 | 20252 ft | 293 kts | 260° |
| 2026-04-26 16:20 | 53.78442 | -7.26401 | 20256 ft | 290 kts | 262° |
| 2026-04-26 16:20 | 53.79634 | -7.32800 | 20270 ft | 296 kts | 303° |
| 2026-04-26 16:20 | 53.80956 | -7.35495 | 20263 ft | 299 kts | 310° |
| 2026-04-26 16:21 | 53.82382 | -7.38055 | 20266 ft | 299 kts | 311° |
| 2026-04-26 16:21 | 53.83806 | -7.40631 | 20270 ft | 300 kts | 310° |
| 2026-04-26 16:21 | 53.85192 | -7.43266 | 20268 ft | 300 kts | 309° |
| 2026-04-26 16:21 | 53.86533 | -7.45906 | 20264 ft | 299 kts | 308° |
| 2026-04-26 16:22 | 53.87898 | -7.48576 | 20262 ft | 299 kts | 308° |
| 2026-04-26 16:22 | 53.89259 | -7.51235 | 20269 ft | 299 kts | 308° |
| 2026-04-26 16:22 | 53.90625 | -7.53905 | 20268 ft | 299 kts | 309° |
| 2026-04-26 16:22 | 53.91988 | -7.56576 | 20269 ft | 300 kts | 308° |
| 2026-04-26 16:23 | 53.93353 | -7.59248 | 20262 ft | 300 kts | 308° |
| 2026-04-26 16:23 | 53.94717 | -7.61925 | 20263 ft | 299 kts | 308° |
| 2026-04-26 16:23 | 53.96080 | -7.64593 | 20261 ft | 299 kts | 308° |
| 2026-04-26 16:23 | 53.97440 | -7.67262 | 20271 ft | 298 kts | 308° |
| 2026-04-26 16:24 | 53.98766 | -7.69971 | 20045 ft | 301 kts | 302° |
| 2026-04-26 16:24 | 53.99530 | -7.73281 | 19478 ft | 302 kts | 281° |
| 2026-04-26 16:24 | 53.99860 | -7.76778 | 18748 ft | 298 kts | 277° |
| 2026-04-26 16:24 | 54.00122 | -7.80253 | 17860 ft | 295 kts | 277° |
| 2026-04-26 16:25 | 54.00392 | -7.83692 | 17021 ft | 291 kts | 277° |
| 2026-04-26 16:25 | 54.00706 | -7.87070 | 16180 ft | 288 kts | 278° |
| 2026-04-26 16:25 | 54.01047 | -7.90407 | 15371 ft | 284 kts | 279° |
| 2026-04-26 16:25 | 54.01329 | -7.93697 | 14504 ft | 279 kts | 271° |
| 2026-04-26 16:26 | 54.01089 | -7.96943 | 13623 ft | 277 kts | 258° |
| 2026-04-26 16:26 | 54.00804 | -7.99049 | 13063 ft | 275 kts | 257° |
| 2026-04-26 16:26 | 54.00202 | -8.03242 | 12017 ft | 271 kts | 257° |
| 2026-04-26 16:26 | 53.99796 | -8.06353 | 11193 ft | 268 kts | 258° |
| 2026-04-26 16:27 | 53.99439 | -8.09455 | 10390 ft | 267 kts | 259° |
| 2026-04-26 16:27 | 53.99096 | -8.12542 | 9565 ft | 265 kts | 259° |
| 2026-04-26 16:27 | 53.98751 | -8.15611 | 8780 ft | 264 kts | 259° |
| 2026-04-26 16:27 | 53.98398 | -8.18662 | 7989 ft | 262 kts | 258° |
| 2026-04-26 16:28 | 53.98048 | -8.21636 | 7285 ft | 258 kts | 258° |
| 2026-04-26 16:28 | 53.97689 | -8.24556 | 7237 ft | 243 kts | 258° |
| 2026-04-26 16:28 | 53.97351 | -8.27342 | 7241 ft | 236 kts | 259° |
| 2026-04-26 16:28 | 53.97071 | -8.29940 | 7189 ft | 213 kts | 260° |
| 2026-04-26 16:29 | 53.96817 | -8.32314 | 7100 ft | 197 kts | 259° |
| 2026-04-26 16:29 | 53.96571 | -8.34496 | 6994 ft | 184 kts | 259° |
| 2026-04-26 16:29 | 53.96324 | -8.36605 | 6733 ft | 181 kts | 258° |
| 2026-04-26 16:29 | 53.96066 | -8.38679 | 6574 ft | 177 kts | 258° |
| 2026-04-26 16:30 | 53.95806 | -8.40766 | 6342 ft | 181 kts | 259° |
| 2026-04-26 16:30 | 53.95564 | -8.42852 | 6001 ft | 180 kts | 259° |
| 2026-04-26 16:30 | 53.95315 | -8.44923 | 5596 ft | 178 kts | 258° |
| 2026-04-26 16:30 | 53.95056 | -8.46967 | 5223 ft | 176 kts | 258° |
| 2026-04-26 16:31 | 53.94797 | -8.48994 | 4855 ft | 175 kts | 258° |
| 2026-04-26 16:31 | 53.94536 | -8.51012 | 4470 ft | 175 kts | 258° |
| 2026-04-26 16:31 | 53.94278 | -8.53020 | 4096 ft | 174 kts | 258° |
| 2026-04-26 16:31 | 53.94015 | -8.55019 | 3722 ft | 173 kts | 258° |
| 2026-04-26 16:32 | 53.93772 | -8.56969 | 3410 ft | 162 kts | 261° |
| 2026-04-26 16:32 | 53.93667 | -8.58175 | 3241 ft | 150 kts | 263° |
| 2026-04-26 16:32 | 53.93479 | -8.60405 | 3090 ft | 140 kts | 262° |
| 2026-04-26 16:32 | 53.93349 | -8.62042 | 3059 ft | 140 kts | 263° |
| 2026-04-26 16:33 | 53.93191 | -8.63666 | 3035 ft | 139 kts | 261° |
| 2026-04-26 16:33 | 53.93006 | -8.65252 | 3010 ft | 138 kts | 259° |
| 2026-04-26 16:33 | 53.92796 | -8.66834 | 3007 ft | 136 kts | 258° |
| 2026-04-26 16:33 | 53.92595 | -8.68389 | 2982 ft | 133 kts | 258° |
| 2026-04-26 16:34 | 53.92388 | -8.69834 | 2584 ft | 124 kts | 257° |
| 2026-04-26 16:34 | 53.92194 | -8.71237 | 2238 ft | 118 kts | 259° |
| 2026-04-26 16:34 | 53.92077 | -8.72588 | 1861 ft | 117 kts | 265° |
| 2026-04-26 16:34 | 53.91947 | -8.73944 | 1505 ft | 116 kts | 259° |
| 2026-04-26 16:35 | 53.91782 | -8.75270 | 1267 ft | 114 kts | 260° |
| 2026-04-26 16:35 | 53.91629 | -8.76559 | 1107 ft | 110 kts | 259° |
| 2026-04-26 16:35 | 53.91473 | -8.77822 | 901 ft | 107 kts | 259° |
| 2026-04-26 16:35 | 53.91343 | -8.79043 | 775 ft | 105 kts | 260° |
| 2026-04-26 16:36 | 53.91204 | -8.80256 | 693 ft | 104 kts | 259° |
| 2026-04-26 16:36 | 53.91071 | -8.81398 | 637 ft | 89 kts | 261° |
| 2026-04-26 16:36 | 53.91027 | -8.81934 | 638 ft | 12 kts | 274° |
| 2026-04-26 16:36 | 53.91017 | -8.82003 | 639 ft | 3 kts | 158° |
| 2026-04-26 16:37 | 53.91021 | -8.81914 | 638 ft | 12 kts | 78° |
| 2026-04-26 16:37 | 53.91041 | -8.81759 | 637 ft | 16 kts | 76° |
| 2026-04-26 16:37 | 53.91063 | -8.81553 | 637 ft | 17 kts | 77° |
| 2026-04-26 16:37 | 53.91086 | -8.81361 | 642 ft | 16 kts | 79° |
| 2026-04-26 16:38 | 53.91107 | -8.81188 | 639 ft | 14 kts | 78° |
| 2026-04-26 16:38 | 53.91125 | -8.81034 | 640 ft | 13 kts | 79° |
| 2026-04-26 16:38 | 53.91143 | -8.80894 | 641 ft | 9 kts | 69° |
| 2026-04-26 16:38 | 53.91194 | -8.80870 | 641 ft | 9 kts | 347° |
| 2026-04-26 16:39 | 53.91256 | -8.80892 | 639 ft | 9 kts | 348° |
| 2026-04-26 16:39 | 53.91317 | -8.80913 | 639 ft | 9 kts | 349° |
| 2026-04-26 16:39 | 53.91352 | -8.80901 | 639 ft | 6 kts | 31° |
| 2026-04-26 16:39 | 53.91391 | -8.80902 | 639 ft | 4 kts | 348° |
| 2026-04-26 16:40 | 53.91402 | -8.80912 | 639 ft | 1 kts | 300° |
| 2026-04-26 16:40 | 53.91402 | -8.80915 | 639 ft | 0 kts | 285° |
| 2026-04-26 16:40 | 53.91402 | -8.80920 | 639 ft | 1 kts | 276° |
| 2026-04-26 16:40 | 53.91403 | -8.80927 | 639 ft | 1 kts | 278° |
| 2026-04-26 16:41 | 53.91405 | -8.80939 | 639 ft | 1 kts | 289° |
| 2026-04-26 16:41 | 53.91405 | -8.80940 | 639 ft | 0 kts | 289° |